Terminal Aerodrome Forecast
Issued by NWS Upton, NY

Home | Current Version | Previous Version | Text Only | Print | Product List | Glossary On
Versions: 1 2 3 4 5 6 7 8 9 10 11 12 13 14 15 16 17 18 19 20 21 22 23 24 25
000
FTUS41 KOKX 240830 AAA
TAFBDR
TAF AMD
KBDR 240830Z 2409/2506 23005KT P6SM SKC
     FM241300 23009KT P6SM SKC
     FM241500 22013KT P6SM FEW250
     FM241800 22013G19KT P6SM SCT250
     FM242300 22009KT P6SM FEW060 SCT250
     FM250300 22005KT P6SM BKN200=

USA.gov is the U.S. government's official web portal to all federal, state and local government web resources and services.